Antilla — PJJI — position and weather

sailwx.info

Track history (hours):
 
Tides and Currents Weather Stations Pressure Air Temp Water Temp Dewpoint Dewpoint Depression Visibility Wind Speed Wind Dir Waves Ship Positions

Antilla

Last reported at 2016-Feb-06 19:33 UTC. Time now 2016-Feb-06 20:21 UTC.
Position S 20°09' E 057°30'.

Length 105 m; beam 16 m.

Type: Cargo ship. MMSI: 306511000.

Date/timePositionNaut miles runAvg speedWind from/ knotsBaromVisibWave heightAir tempDewpointWater temp
2016-Feb-06 19:33S 20°09' E 057°30'0 0.0
2016-Feb-06 18:33S 20°09' E 057°30'0 0.0
2016-Feb-06 17:33S 20°09' E 057°30'0 0.0
2016-Feb-06 16:32S 20°09' E 057°30'0 0.0
2016-Feb-06 15:32S 20°09' E 057°30'0 0.0
2016-Feb-06 14:31S 20°09' E 057°30'0 0.0
2016-Feb-06 13:31S 20°09' E 057°30'0 0.0
2016-Feb-06 12:33S 20°09' E 057°30'0 0.0
2016-Feb-06 11:33S 20°09' E 057°30'0 0.0
2016-Feb-06 10:33S 20°09' E 057°30'0 0.0
2016-Feb-06 09:32S 20°09' E 057°30'0 0.0
2016-Feb-06 08:32S 20°09' E 057°30'0 0.0
2016-Feb-06 07:31S 20°09' E 057°30'0 0.0
2016-Feb-06 06:31S 20°09' E 057°30'0 0.0
2016-Feb-06 05:33S 20°09' E 057°30'0 0.0
2016-Feb-06 04:33S 20°09' E 057°30'0 0.1
2016-Feb-06 03:33S 20°09' E 057°30'0 0.0
2016-Feb-06 02:32S 20°09' E 057°30'0 0.0
2016-Feb-06 01:32S 20°09' E 057°30'0 0.0
2016-Feb-06 00:31S 20°09' E 057°30'0 0.0
2016-Feb-05 23:28S 20°09' E 057°30'0 0.0
2016-Feb-05 22:33S 20°09' E 057°30'0 0.0
2016-Feb-05 21:33S 20°09' E 057°30'0 0.0
2016-Feb-05 20:32S 20°09' E 057°30'0 0.0
2016-Feb-05 19:32S 20°09' E 057°30'0 0.0
2016-Feb-05 18:32S 20°09' E 057°30'0 0.0
2016-Feb-05 17:31S 20°09' E 057°30'0 0.0
2016-Feb-05 16:31S 20°09' E 057°30'0 0.0
2016-Feb-05 15:33S 20°09' E 057°30'0 0.0
2016-Feb-05 14:33S 20°09' E 057°30'0 0.0
2016-Feb-05 13:32S 20°09' E 057°30'0 0.0
2016-Feb-05 12:32S 20°09' E 057°30'0 0.0
2016-Feb-05 11:32S 20°09' E 057°30'0 0.0
2016-Feb-05 10:31S 20°09' E 057°30'0 0.0
2016-Feb-05 09:31S 20°09' E 057°30'0 0.0
2016-Feb-05 08:33S 20°09' E 057°30'0 0.0
2016-Feb-05 07:33S 20°09' E 057°30'0 0.0
2016-Feb-05 06:33S 20°09' E 057°30'0 0.0
2016-Feb-05 05:32S 20°09' E 057°30'0 0.0
2016-Feb-05 04:32S 20°09' E 057°30'0 0.0
2016-Feb-05 03:28S 20°09' E 057°30'0 0.0
2016-Feb-05 02:31S 20°09' E 057°30'0 0.0
2016-Feb-05 01:33S 20°09' E 057°30'0 0.0
2016-Feb-05 00:33S 20°09' E 057°30'0 0.0
2016-Feb-04 23:32S 20°09' E 057°30'0 0.0
2016-Feb-04 22:32S 20°09' E 057°30'0 0.0
2016-Feb-04 21:32S 20°09' E 057°30'0 0.0
2016-Feb-04 20:31S 20°09' E 057°30'0 0.0
2016-Feb-04 19:31S 20°09' E 057°30'0 0.0
2016-Feb-04 18:33S 20°09' E 057°30'0 0.0
2016-Feb-04 17:33S 20°09' E 057°30'0 0.0
2016-Feb-04 16:32S 20°09' E 057°30'0 0.0
2016-Feb-04 15:32S 20°09' E 057°30'0 0.0
2016-Feb-04 14:28S 20°09' E 057°30'0 0.0
2016-Feb-04 13:31S 20°09' E 057°30'0 0.0
2016-Feb-04 12:31S 20°09' E 057°30'0 0.0
2016-Feb-04 11:33S 20°09' E 057°30'0 0.0
2016-Feb-04 10:33S 20°09' E 057°30'0 0.0
2016-Feb-04 09:32S 20°09' E 057°30'0 0.0
2016-Feb-04 08:32S 20°09' E 057°30'0 0.0
2016-Feb-04 07:32S 20°09' E 057°30'0 0.0
2016-Feb-04 06:31S 20°09' E 057°30'0 0.0
2016-Feb-04 05:31S 20°09' E 057°30'3 3.2
2016-Feb-04 04:33S 20°08' E 057°27'1 1.2
2016-Feb-04 03:33S 20°07' E 057°26'3 2.9
2016-Feb-04 02:33S 20°05' E 057°23'4 3.6
2016-Feb-04 01:33S 20°03' E 057°21'1 0.8
2016-Feb-04 00:32S 20°03' E 057°21'1 1.0
2016-Feb-03 23:33S 20°04' E 057°22'1 0.9
2016-Feb-03 22:33S 20°04' E 057°23'1 0.7
2016-Feb-03 21:33S 20°04' E 057°24'1 0.7
2016-Feb-03 20:34S 20°04' E 057°25'1 0.6
2016-Feb-03 19:34S 20°04' E 057°25'1 0.6
2016-Feb-03 18:33S 20°04' E 057°26'0 0.5
2016-Feb-03 17:34S 20°04' E 057°26'1010.4
2016-Feb-03 16:34S 19°54' E 057°25'  
Track history (hours):
 
Tides and Currents Weather Stations Pressure Air Temp Water Temp Dewpoint Dewpoint Depression Visibility Wind Speed Wind Dir Waves Ship Positions

Antilla

Last reported at 2016-Feb-06 19:33 UTC. Time now 2016-Feb-06 20:21 UTC.
Position S 20°09' E 057°30'.

Length 105 m; beam 16 m.

Type: Cargo ship. MMSI: 306511000.

Date/timePositionNaut miles runAvg speedWind from/ knotsBaromVisibWave heightAir tempDewpointWater temp
2016-Feb-06 19:33S 20°09' E 057°30'0 0.0
2016-Feb-06 18:33S 20°09' E 057°30'0 0.0
2016-Feb-06 17:33S 20°09' E 057°30'0 0.0
2016-Feb-06 16:32S 20°09' E 057°30'0 0.0
2016-Feb-06 15:32S 20°09' E 057°30'0 0.0
2016-Feb-06 14:31S 20°09' E 057°30'0 0.0
2016-Feb-06 13:31S 20°09' E 057°30'0 0.0
2016-Feb-06 12:33S 20°09' E 057°30'0 0.0
2016-Feb-06 11:33S 20°09' E 057°30'0 0.0
2016-Feb-06 10:33S 20°09' E 057°30'0 0.0
2016-Feb-06 09:32S 20°09' E 057°30'0 0.0
2016-Feb-06 08:32S 20°09' E 057°30'0 0.0
2016-Feb-06 07:31S 20°09' E 057°30'0 0.0
2016-Feb-06 06:31S 20°09' E 057°30'0 0.0
2016-Feb-06 05:33S 20°09' E 057°30'0 0.0
2016-Feb-06 04:33S 20°09' E 057°30'0 0.1
2016-Feb-06 03:33S 20°09' E 057°30'0 0.0
2016-Feb-06 02:32S 20°09' E 057°30'0 0.0
2016-Feb-06 01:32S 20°09' E 057°30'0 0.0
2016-Feb-06 00:31S 20°09' E 057°30'0 0.0
2016-Feb-05 23:28S 20°09' E 057°30'0 0.0
2016-Feb-05 22:33S 20°09' E 057°30'0 0.0
2016-Feb-05 21:33S 20°09' E 057°30'0 0.0
2016-Feb-05 20:32S 20°09' E 057°30'0 0.0
2016-Feb-05 19:32S 20°09' E 057°30'0 0.0
2016-Feb-05 18:32S 20°09' E 057°30'0 0.0
2016-Feb-05 17:31S 20°09' E 057°30'0 0.0
2016-Feb-05 16:31S 20°09' E 057°30'0 0.0
2016-Feb-05 15:33S 20°09' E 057°30'0 0.0
2016-Feb-05 14:33S 20°09' E 057°30'0 0.0
2016-Feb-05 13:32S 20°09' E 057°30'0 0.0
2016-Feb-05 12:32S 20°09' E 057°30'0 0.0
2016-Feb-05 11:32S 20°09' E 057°30'0 0.0
2016-Feb-05 10:31S 20°09' E 057°30'0 0.0
2016-Feb-05 09:31S 20°09' E 057°30'0 0.0
2016-Feb-05 08:33S 20°09' E 057°30'0 0.0
2016-Feb-05 07:33S 20°09' E 057°30'0 0.0
2016-Feb-05 06:33S 20°09' E 057°30'0 0.0
2016-Feb-05 05:32S 20°09' E 057°30'0 0.0
2016-Feb-05 04:32S 20°09' E 057°30'0 0.0
2016-Feb-05 03:28S 20°09' E 057°30'0 0.0
2016-Feb-05 02:31S 20°09' E 057°30'0 0.0
2016-Feb-05 01:33S 20°09' E 057°30'0 0.0
2016-Feb-05 00:33S 20°09' E 057°30'0 0.0
2016-Feb-04 23:32S 20°09' E 057°30'0 0.0
2016-Feb-04 22:32S 20°09' E 057°30'0 0.0
2016-Feb-04 21:32S 20°09' E 057°30'0 0.0
2016-Feb-04 20:31S 20°09' E 057°30'0 0.0
2016-Feb-04 19:31S 20°09' E 057°30'0 0.0
2016-Feb-04 18:33S 20°09' E 057°30'0 0.0
2016-Feb-04 17:33S 20°09' E 057°30'0 0.0
2016-Feb-04 16:32S 20°09' E 057°30'0 0.0
2016-Feb-04 15:32S 20°09' E 057°30'0 0.0
2016-Feb-04 14:28S 20°09' E 057°30'0 0.0
2016-Feb-04 13:31S 20°09' E 057°30'0 0.0
2016-Feb-04 12:31S 20°09' E 057°30'0 0.0
2016-Feb-04 11:33S 20°09' E 057°30'0 0.0
2016-Feb-04 10:33S 20°09' E 057°30'0 0.0
2016-Feb-04 09:32S 20°09' E 057°30'0 0.0
2016-Feb-04 08:32S 20°09' E 057°30'0 0.0
2016-Feb-04 07:32S 20°09' E 057°30'0 0.0
2016-Feb-04 06:31S 20°09' E 057°30'0 0.0
2016-Feb-04 05:31S 20°09' E 057°30'3 3.2
2016-Feb-04 04:33S 20°08' E 057°27'1 1.2
2016-Feb-04 03:33S 20°07' E 057°26'3 2.9
2016-Feb-04 02:33S 20°05' E 057°23'4 3.6
2016-Feb-04 01:33S 20°03' E 057°21'1 0.8
2016-Feb-04 00:32S 20°03' E 057°21'1 1.0
2016-Feb-03 23:33S 20°04' E 057°22'1 0.9
2016-Feb-03 22:33S 20°04' E 057°23'1 0.7
2016-Feb-03 21:33S 20°04' E 057°24'1 0.7
2016-Feb-03 20:34S 20°04' E 057°25'1 0.6
2016-Feb-03 19:34S 20°04' E 057°25'1 0.6
2016-Feb-03 18:33S 20°04' E 057°26'0 0.5
2016-Feb-03 17:34S 20°04' E 057°26'1010.4
2016-Feb-03 16:34S 19°54' E 057°25'  

Dump ship's entire track history